Time;durP1;ratioP1;P1;durP2;ratioP2;P2;SDS_P1;SDS_P2;PMS_P1;PMS_P2;Temp;Humidity;BMP_temperature;BMP_pressure;BME280_temperature;BME280_humidity;BME280_pressure;Samples;Min_cycle;Max_cycle;Signal;HPM_P1;HPM_P2
2022/05/27 00:02:22;;;;;;;2.40;1.60;;;22.80;45.40;;;;;;4985909;28;20853;-44
2022/05/27 00:04:48;;;;;;;2.60;2.20;;;22.80;45.20;;;;;;4976440;28;20266;-45
2022/05/27 00:07:13;;;;;;;4.77;2.43;;;22.90;45.40;;;;;;4983584;28;20681;-48
2022/05/27 00:09:39;;;;;;;2.60;2.40;;;22.90;45.40;;;;;;4985894;28;20273;-44
2022/05/27 00:12:05;;;;;;;2.30;1.77;;;22.90;45.40;;;;;;4979991;28;20197;-44
2022/05/27 00:14:30;;;;;;;4.03;2.40;;;22.80;45.30;;;;;;4982123;28;20202;-45
2022/05/27 00:16:56;;;;;;;3.27;2.23;;;22.90;45.30;;;;;;4984374;28;20449;-44
2022/05/27 00:19:22;;;;;;;4.50;2.23;;;22.90;45.30;;;;;;4977680;28;20194;-44
2022/05/27 00:21:47;;;;;;;3.00;2.10;;;22.90;45.30;;;;;;4984543;28;20226;-44
2022/05/27 00:24:13;;;;;;;7.57;2.37;;;22.80;45.30;;;;;;4982822;28;20209;-43
2022/05/27 00:26:39;;;;;;;2.20;2.03;;;22.80;45.60;;;;;;4978546;28;20864;-43
2022/05/27 00:29:04;;;;;;;2.00;1.90;;;22.80;45.70;;;;;;4985316;28;20456;-44
2022/05/27 00:31:30;;;;;;;2.30;2.00;;;22.80;45.10;;;;;;4979311;28;20195;-43
2022/05/27 00:33:56;;;;;;;3.73;2.57;;;22.80;45.00;;;;;;4978761;28;20191;-46
2022/05/27 00:36:21;;;;;;;3.43;1.90;;;22.70;45.20;;;;;;4982420;28;20210;-43
2022/05/27 00:38:47;;;;;;;2.97;2.30;;;22.60;45.40;;;;;;4980930;28;20199;-43
2022/05/27 00:41:13;;;;;;;2.20;1.90;;;22.50;45.60;;;;;;4979136;28;20227;-43
2022/05/27 00:43:41;;;;;;;2.20;2.00;;;22.40;45.70;;;;;;4979525;28;20600;-44
2022/05/27 00:46:20;;;;;;;3.13;2.03;;;22.30;46.00;;;;;;4987638;28;20540;-44
2022/05/27 00:48:50;;;;;;;5.17;2.10;;;22.20;46.40;;;;;;4986144;28;20449;-44
2022/05/27 00:51:24;;;;;;;1.93;1.80;;;22.10;46.50;;;;;;4985680;28;20484;-43
2022/05/27 00:54:13;;;;;;;2.17;2.00;;;22.00;46.60;;;;;;4979199;28;20446;-44
2022/05/27 00:56:41;;;;;;;3.53;2.10;;;21.90;46.70;;;;;;4987776;28;20465;-43
2022/05/27 00:59:13;;;;;;;3.10;2.07;;;21.90;46.80;;;;;;4988033;28;20441;-44
2022/05/27 01:01:39;;;;;;;2.17;1.97;;;21.80;46.80;;;;;;4987115;28;20827;-43
2022/05/27 01:04:07;;;;;;;2.90;2.10;;;21.80;46.90;;;;;;4985515;28;20477;-43
2022/05/27 01:06:32;;;;;;;2.40;2.20;;;21.80;47.10;;;;;;4985448;28;20440;-43
2022/05/27 01:08:58;;;;;;;2.53;2.33;;;21.70;47.20;;;;;;4978980;28;20454;-43
2022/05/27 01:11:30;;;;;;;4.77;2.37;;;21.70;47.30;;;;;;4985065;28;20195;-43
2022/05/27 01:14:08;;;;;;;3.70;1.73;;;21.70;47.50;;;;;;4986777;28;20214;-44
2022/05/27 01:16:58;;;;;;;2.57;2.30;;;21.70;47.50;;;;;;4986475;28;21120;-44
2022/05/27 01:22:57;;;;;;;2.63;2.20;;;21.60;47.80;;;;;;4990234;28;21044;-43
2022/05/27 01:25:43;;;;;;;2.57;2.37;;;21.40;48.10;;;;;;4983195;28;20516;-43
2022/05/27 01:28:19;;;;;;;2.40;2.20;;;21.30;48.30;;;;;;4985076;28;20445;-44
2022/05/27 01:31:09;;;;;;;2.07;1.87;;;21.20;48.50;;;;;;4983665;28;20449;-43
2022/05/27 01:33:43;;;;;;;3.03;2.30;;;21.20;48.60;;;;;;4987935;28;20855;-43
2022/05/27 01:36:35;;;;;;;2.53;2.10;;;21.10;48.60;;;;;;4988511;28;20464;-43
2022/05/27 01:39:30;;;;;;;2.20;2.00;;;21.10;48.80;;;;;;4979756;28;20465;-43
2022/05/27 01:42:01;;;;;;;3.30;2.00;;;21.10;49.50;;;;;;4979522;28;20488;-44
2022/05/27 01:44:40;;;;;;;4.10;2.27;;;21.00;49.00;;;;;;4983130;28;20450;-43
2022/05/27 01:47:09;;;;;;;2.67;2.37;;;21.00;49.10;;;;;;4984519;28;20453;-45
2022/05/27 01:49:43;;;;;;;2.73;2.27;;;20.90;49.20;;;;;;4985013;28;20528;-45
2022/05/27 01:52:31;;;;;;;2.70;2.00;;;20.90;49.40;;;;;;4987924;28;20569;-43
2022/05/27 01:55:08;;;;;;;3.47;2.23;;;20.90;49.40;;;;;;4983954;28;20486;-43
2022/05/27 01:57:42;;;;;;;2.30;2.20;;;20.90;49.50;;;;;;4989767;28;20870;-43
2022/05/27 02:00:19;;;;;;;4.17;2.40;;;20.80;49.60;;;;;;4980870;28;20850;-43
2022/05/27 02:02:52;;;;;;;2.00;1.90;;;20.80;49.80;;;;;;4989402;28;20442;-43
2022/05/27 02:05:38;;;;;;;2.73;2.50;;;20.80;49.80;;;;;;4990906;28;20438;-43
2022/05/27 02:08:24;;;;;;;2.90;2.23;;;20.80;49.70;;;;;;4985966;28;20862;-44
2022/05/27 02:11:08;;;;;;;5.00;2.00;;;20.80;49.80;;;;;;4993386;28;20443;-44
2022/05/27 02:13:33;;;;;;;5.83;2.10;;;20.80;49.90;;;;;;4982155;28;20544;-44
2022/05/27 02:16:00;;;;;;;2.17;1.97;;;20.70;50.10;;;;;;4988942;28;20537;-43
2022/05/27 02:18:46;;;;;;;3.13;2.00;;;20.70;50.20;;;;;;4988524;28;20189;-43
2022/05/27 02:21:26;;;;;;;2.63;1.73;;;20.70;50.20;;;;;;4987700;28;20493;-43
2022/05/27 02:23:58;;;;;;;5.60;2.00;;;20.70;49.90;;;;;;4989182;28;20433;-43
2022/05/27 02:26:28;;;;;;;2.43;1.90;;;20.80;49.80;;;;;;4988679;28;20536;-44
2022/05/27 02:29:02;;;;;;;2.10;2.00;;;20.80;49.90;;;;;;4989288;28;20445;-43
2022/05/27 02:31:35;;;;;;;2.30;2.10;;;20.70;50.00;;;;;;4987628;28;20464;-43
2022/05/27 02:37:21;;;;;;;2.27;2.03;;;20.70;50.10;;;;;;4986924;28;20534;-43
2022/05/27 02:39:47;;;;;;;2.23;2.03;;;20.60;50.10;;;;;;4988748;28;20457;-43
2022/05/27 02:42:20;;;;;;;3.80;2.17;;;20.60;50.20;;;;;;4988218;28;20478;-43
2022/05/27 02:44:50;;;;;;;2.63;2.30;;;20.60;50.30;;;;;;4983190;28;20889;-44
2022/05/27 02:47:50;;;;;;;2.37;1.80;;;20.50;50.40;;;;;;4985962;28;20799;-44
2022/05/27 02:50:33;;;;;;;2.10;2.00;;;20.60;50.50;;;;;;4985142;28;20497;-43
2022/05/27 02:53:24;;;;;;;2.50;1.53;;;20.60;51.00;;;;;;5000210;28;20843;-43
2022/05/27 02:56:01;;;;;;;2.70;2.50;;;20.70;50.30;;;;;;4987258;28;20521;-44
2022/05/27 02:58:30;;;;;;;2.30;2.10;;;20.70;50.30;;;;;;4984477;28;20452;-44
2022/05/27 03:00:56;;;;;;;3.03;2.40;;;20.60;50.30;;;;;;4985935;28;20489;-45
2022/05/27 03:03:21;;;;;;;3.30;2.00;;;20.60;50.30;;;;;;4983239;28;20445;-44
2022/05/27 03:05:50;;;;;;;4.20;2.63;;;20.60;50.50;;;;;;4986371;28;20198;-43
2022/05/27 03:08:31;;;;;;;3.80;2.20;;;20.60;50.50;;;;;;4981805;28;20227;-43
2022/05/27 03:11:11;;;;;;;2.20;2.00;;;20.50;51.00;;;;;;4984223;28;20465;-43
2022/05/27 03:13:44;;;;;;;2.30;2.10;;;20.50;50.90;;;;;;4980148;28;20941;-43
2022/05/27 03:16:29;;;;;;;1.77;1.67;;;20.50;51.00;;;;;;4978877;28;20497;-43
2022/05/27 03:19:19;;;;;;;2.37;2.17;;;20.60;51.20;;;;;;4985404;28;20468;-43
2022/05/27 03:21:59;;;;;;;2.90;2.00;;;20.60;51.20;;;;;;4986543;28;20918;-43
2022/05/27 03:24:40;;;;;;;2.53;2.03;;;20.60;51.20;;;;;;4976594;28;20456;-43
2022/05/27 03:27:20;;;;;;;4.27;2.00;;;20.60;51.20;;;;;;4976478;28;20500;-43
2022/05/27 03:30:01;;;;;;;2.90;2.43;;;20.60;51.10;;;;;;4984356;28;21007;-43
2022/05/27 03:32:30;;;;;;;4.10;2.67;;;20.60;51.30;;;;;;4981002;28;21008;-44
2022/05/27 03:35:19;;;;;;;3.10;2.30;;;20.50;51.40;;;;;;4984299;28;20463;-43
2022/05/27 03:38:02;;;;;;;2.10;1.97;;;20.50;51.70;;;;;;4982718;28;20534;-43
2022/05/27 03:40:34;;;;;;;2.50;2.30;;;20.50;51.90;;;;;;4980334;28;20485;-44
2022/05/27 03:43:02;;;;;;;2.13;1.90;;;20.40;52.00;;;;;;4985154;28;20816;-45
2022/05/27 03:45:27;;;;;;;2.60;2.20;;;20.40;52.20;;;;;;4985051;28;20445;-43
2022/05/27 03:47:53;;;;;;;2.80;2.20;;;20.40;52.50;;;;;;4979519;28;20536;-43
2022/05/27 03:50:22;;;;;;;3.30;2.10;;;20.30;52.60;;;;;;4985622;28;20213;-43
2022/05/27 03:52:51;;;;;;;3.30;2.73;;;20.30;52.80;;;;;;4981202;28;20194;-43
2022/05/27 03:55:20;;;;;;;3.40;2.30;;;20.30;53.00;;;;;;4993932;28;20481;-43
2022/05/27 03:57:45;;;;;;;2.67;2.20;;;20.30;53.10;;;;;;4980829;28;20960;-44
2022/05/27 04:00:13;;;;;;;2.60;2.37;;;20.30;53.10;;;;;;4984696;28;20452;-43
2022/05/27 04:02:39;;;;;;;2.17;1.60;;;20.30;53.10;;;;;;4985238;28;20199;-44
2022/05/27 04:05:06;;;;;;;3.27;2.70;;;20.30;53.00;;;;;;5001063;28;20786;-43
2022/05/27 04:07:31;;;;;;;1.97;1.87;;;20.30;53.10;;;;;;4983593;28;20441;-44
2022/05/27 04:09:57;;;;;;;3.37;2.13;;;20.30;53.20;;;;;;4979149;28;20440;-43
2022/05/27 04:12:22;;;;;;;2.60;2.07;;;20.30;53.50;;;;;;4977856;28;20234;-45
2022/05/27 04:14:50;;;;;;;2.83;1.97;;;20.30;53.80;;;;;;4982563;28;20215;-43
2022/05/27 04:17:30;;;;;;;2.13;1.93;;;20.30;53.70;;;;;;4980013;28;20445;-44
2022/05/27 04:19:57;;;;;;;2.00;1.80;;;20.30;53.60;;;;;;4986908;28;20483;-46
2022/05/27 04:22:23;;;;;;;2.80;2.03;;;20.30;53.50;;;;;;4987816;28;21344;-44
2022/05/27 04:24:48;;;;;;;4.00;2.33;;;20.30;53.50;;;;;;4983629;28;20540;-47
2022/05/27 04:27:16;;;;;;;2.70;2.20;;;20.40;53.60;;;;;;4989045;28;20564;-44
2022/05/27 04:29:45;;;;;;;2.47;2.27;;;20.40;53.40;;;;;;4983638;28;20663;-44
2022/05/27 04:32:12;;;;;;;3.07;2.00;;;20.50;53.30;;;;;;4983698;28;20455;-46
2022/05/27 04:34:38;;;;;;;2.60;2.40;;;20.60;53.30;;;;;;4984691;28;20448;-44
2022/05/27 04:37:04;;;;;;;1.90;1.80;;;20.60;53.20;;;;;;4983322;28;20833;-46
2022/05/27 04:39:30;;;;;;;2.37;2.13;;;20.70;53.10;;;;;;4988145;28;20457;-45
2022/05/27 04:41:55;;;;;;;3.40;2.00;;;20.70;52.80;;;;;;4984217;28;21458;-44
2022/05/27 04:44:21;;;;;;;2.90;2.30;;;20.70;52.80;;;;;;4985621;28;20270;-46
2022/05/27 04:46:47;;;;;;;2.50;2.30;;;20.60;53.60;;;;;;4983576;28;20280;-44
2022/05/27 04:49:50;;;;;;;3.47;2.53;;;20.50;53.80;;;;;;4982579;28;20720;-47
2022/05/27 04:51:59;;;;;;;5.00;2.47;;;20.60;53.80;;;;;;4982500;28;20199;-43
2022/05/27 04:54:25;;;;;;;3.23;2.70;;;20.70;53.60;;;;;;4986295;28;20488;-46
2022/05/27 04:56:51;;;;;;;2.60;2.30;;;20.70;53.50;;;;;;4984031;28;20666;-45
2022/05/27 04:59:17;;;;;;;2.27;1.80;;;20.80;53.50;;;;;;4988819;28;20976;-44
2022/05/27 05:01:42;;;;;;;2.50;2.10;;;20.80;53.70;;;;;;4988013;28;20493;-43
2022/05/27 05:04:08;;;;;;;2.53;1.80;;;20.70;53.90;;;;;;4987773;28;20673;-45
2022/05/27 05:06:33;;;;;;;2.47;2.13;;;20.70;53.80;;;;;;4984852;28;20229;-47
2022/05/27 05:08:59;;;;;;;3.93;2.60;;;20.60;53.70;;;;;;4990285;28;20206;-43
2022/05/27 05:11:24;;;;;;;4.30;2.37;;;20.70;53.60;;;;;;4991065;28;20658;-47
2022/05/27 05:13:50;;;;;;;2.80;2.00;;;20.70;53.70;;;;;;4990756;28;20195;-44
2022/05/27 05:16:16;;;;;;;4.53;2.90;;;20.80;54.20;;;;;;4991284;28;20195;-45
2022/05/27 05:18:41;;;;;;;3.97;2.60;;;20.90;53.70;;;;;;4990568;28;20198;-47
2022/05/27 05:21:07;;;;;;;4.57;2.43;;;20.90;53.20;;;;;;4990472;28;20772;-43
2022/05/27 05:23:33;;;;;;;3.97;2.30;;;20.80;53.10;;;;;;4986001;28;20222;-45
2022/05/27 05:25:58;;;;;;;2.33;2.13;;;20.70;53.20;;;;;;4978633;28;20217;-46
2022/05/27 05:28:24;;;;;;;3.80;2.20;;;20.70;53.60;;;;;;4981805;28;20194;-44
2022/05/27 05:30:49;;;;;;;2.57;2.40;;;20.70;53.50;;;;;;4981693;28;20214;-43
2022/05/27 05:33:15;;;;;;;2.90;2.23;;;20.70;53.40;;;;;;4988454;28;20191;-45
2022/05/27 05:35:41;;;;;;;2.30;2.10;;;20.70;53.30;;;;;;4986222;28;20241;-43
2022/05/27 05:38:07;;;;;;;3.70;2.50;;;20.70;53.30;;;;;;4983022;28;20282;-44
2022/05/27 05:40:33;;;;;;;3.53;3.23;;;20.70;53.50;;;;;;4990765;28;20706;-46
2022/05/27 05:43:01;;;;;;;8.10;2.50;;;20.50;53.60;;;;;;4987347;28;20454;-43
2022/05/27 05:45:27;;;;;;;4.50;2.47;;;20.60;53.60;;;;;;4990100;28;20450;-46
2022/05/27 05:47:53;;;;;;;2.87;2.23;;;20.60;53.50;;;;;;4987781;28;20445;-44
2022/05/27 05:50:19;;;;;;;2.97;2.00;;;20.50;53.50;;;;;;4988352;28;20444;-45
2022/05/27 05:52:46;;;;;;;5.17;3.00;;;20.40;53.90;;;;;;4987229;28;20199;-46
2022/05/27 05:55:13;;;;;;;4.50;2.60;;;20.50;53.60;;;;;;4988689;28;20497;-44
2022/05/27 05:57:44;;;;;;;2.40;2.20;;;20.50;53.90;;;;;;4988026;28;20520;-44
2022/05/27 06:00:13;;;;;;;4.10;2.13;;;20.60;53.80;;;;;;4988488;28;20442;-45
2022/05/27 06:02:39;;;;;;;2.77;2.50;;;20.50;53.80;;;;;;4989738;28;20533;-43
2022/05/27 06:05:05;;;;;;;3.90;2.33;;;20.50;53.70;;;;;;4990363;28;20529;-44
2022/05/27 06:07:32;;;;;;;2.00;1.90;;;20.60;53.50;;;;;;4990479;28;20207;-43
2022/05/27 06:09:58;;;;;;;3.70;2.37;;;20.60;53.70;;;;;;4990052;28;20451;-45
2022/05/27 06:12:24;;;;;;;4.47;2.17;;;20.60;53.70;;;;;;4988772;28;20606;-44
2022/05/27 06:14:50;;;;;;;2.50;2.20;;;20.70;53.60;;;;;;4988950;28;20536;-44
2022/05/27 06:17:16;;;;;;;2.60;2.40;;;20.90;53.30;;;;;;4988769;28;20194;-43
2022/05/27 06:19:42;;;;;;;3.93;2.20;;;21.00;53.30;;;;;;4988862;28;21834;-43
2022/05/27 06:22:08;;;;;;;3.90;2.33;;;21.10;53.10;;;;;;4985563;28;20262;-43
2022/05/27 06:24:34;;;;;;;4.40;2.70;;;21.30;53.00;;;;;;4989309;28;20293;-43
2022/05/27 06:26:59;;;;;;;3.20;2.30;;;21.40;52.90;;;;;;4989816;28;20551;-44
2022/05/27 06:34:54;;;;;;;4.63;2.77;;;21.40;53.00;;;;;;4988522;28;20461;-44
2022/05/27 06:37:24;;;;;;;5.30;3.10;;;21.50;52.90;;;;;;4986239;28;20457;-43
2022/05/27 06:39:49;;;;;;;4.13;3.40;;;21.40;52.90;;;;;;4989433;28;20689;-44
2022/05/27 06:42:16;;;;;;;4.70;3.40;;;21.40;53.10;;;;;;4989743;28;20524;-43
2022/05/27 06:44:42;;;;;;;2.70;2.50;;;21.40;53.50;;;;;;4988973;28;20236;-44
2022/05/27 06:47:09;;;;;;;5.67;3.30;;;21.30;53.60;;;;;;4987608;28;20452;-44
2022/05/27 06:49:36;;;;;;;3.20;2.90;;;21.10;53.70;;;;;;4978012;28;20446;-43
2022/05/27 06:52:03;;;;;;;4.67;3.10;;;21.00;53.90;;;;;;4983386;28;20454;-43
2022/05/27 06:54:29;;;;;;;3.10;2.40;;;20.90;54.20;;;;;;4988590;28;20488;-45
2022/05/27 06:56:54;;;;;;;4.53;2.63;;;20.70;54.70;;;;;;4988221;28;20934;-44
2022/05/27 06:59:22;;;;;;;4.73;2.90;;;20.40;55.40;;;;;;4981274;28;20206;-43
2022/05/27 07:01:48;;;;;;;4.20;3.20;;;20.30;55.60;;;;;;4987774;28;20238;-44
2022/05/27 07:04:15;;;;;;;3.60;2.80;;;20.10;55.90;;;;;;4988374;28;20442;-43
2022/05/27 07:06:43;;;;;;;4.70;2.80;;;20.20;56.00;;;;;;4985591;28;20486;-44
2022/05/27 07:09:11;;;;;;;4.87;3.23;;;20.40;55.90;;;;;;4987866;28;20457;-43
2022/05/27 07:11:39;;;;;;;3.73;3.20;;;20.60;55.70;;;;;;4987618;28;20438;-43
2022/05/27 07:14:04;;;;;;;4.27;2.90;;;20.60;55.40;;;;;;4988467;28;20445;-43
2022/05/27 07:16:30;;;;;;;3.43;2.90;;;20.70;55.30;;;;;;4989031;28;20450;-43
2022/05/27 07:18:56;;;;;;;9.50;3.10;;;20.50;55.40;;;;;;4987502;28;20194;-44
2022/05/27 07:21:21;;;;;;;3.57;3.27;;;20.60;55.50;;;;;;4989477;28;20492;-43
2022/05/27 07:23:47;;;;;;;4.43;3.13;;;20.60;55.30;;;;;;4989902;28;20197;-45
2022/05/27 07:26:13;;;;;;;2.80;2.60;;;20.60;55.90;;;;;;4986400;28;20194;-43
2022/05/27 07:28:38;;;;;;;3.53;2.77;;;20.60;55.20;;;;;;4982085;28;20198;-43
2022/05/27 07:31:04;;;;;;;3.10;2.80;;;20.60;55.30;;;;;;4988582;28;20558;-43
2022/05/27 07:33:31;;;;;;;3.20;2.90;;;20.60;55.30;;;;;;4987693;28;20869;-43
2022/05/27 07:35:56;;;;;;;5.90;3.20;;;20.70;55.10;;;;;;4984872;28;20548;-43
2022/05/27 07:38:22;;;;;;;2.90;2.70;;;20.70;55.10;;;;;;4986995;28;21017;-43
2022/05/27 07:40:48;;;;;;;6.53;2.50;;;20.70;55.10;;;;;;4979764;28;20333;-45
2022/05/27 07:43:14;;;;;;;3.40;3.10;;;20.80;54.90;;;;;;4987891;28;20464;-44
2022/05/27 07:45:42;;;;;;;3.13;2.80;;;20.90;54.60;;;;;;4985784;28;20442;-43
2022/05/27 07:48:09;;;;;;;2.77;2.57;;;21.00;54.60;;;;;;4982300;28;20728;-45
2022/05/27 07:50:36;;;;;;;3.97;2.87;;;21.30;54.30;;;;;;4987389;28;20503;-45
2022/05/27 07:53:01;;;;;;;3.50;3.10;;;21.30;53.90;;;;;;4997755;28;21058;-44
2022/05/27 07:55:28;;;;;;;4.10;2.73;;;21.00;53.90;;;;;;4999861;28;20508;-44
2022/05/27 07:57:53;;;;;;;3.30;3.00;;;21.00;54.40;;;;;;4987985;28;20545;-44
2022/05/27 08:00:22;;;;;;;3.53;2.93;;;21.10;54.50;;;;;;4987283;28;20457;-44
2022/05/27 08:02:48;;;;;;;3.07;2.77;;;20.90;54.60;;;;;;4990651;28;20332;-45
2022/05/27 08:05:17;;;;;;;2.53;2.33;;;20.90;54.50;;;;;;5007456;28;20889;-44
2022/05/27 08:07:43;;;;;;;4.17;2.77;;;20.90;54.50;;;;;;4995227;28;20332;-46
2022/05/27 08:10:10;;;;;;;6.60;3.00;;;20.80;54.70;;;;;;4993663;28;20544;-44
2022/05/27 08:12:36;;;;;;;3.27;2.60;;;20.90;54.50;;;;;;4995867;28;20429;-46
2022/05/27 08:15:02;;;;;;;3.00;2.70;;;20.90;54.10;;;;;;4990551;28;20445;-47
2022/05/27 08:17:28;;;;;;;5.80;2.30;;;20.90;54.50;;;;;;4994104;28;20558;-45
2022/05/27 08:19:53;;;;;;;4.67;2.43;;;20.90;54.60;;;;;;4985829;28;20446;-44
2022/05/27 08:22:19;;;;;;;2.70;1.97;;;20.90;54.50;;;;;;4987636;28;20289;-44
2022/05/27 08:24:45;;;;;;;3.10;2.50;;;21.20;54.40;;;;;;4992623;28;20197;-44
2022/05/27 08:27:11;;;;;;;3.37;2.37;;;21.20;53.80;;;;;;4990015;28;20191;-47
2022/05/27 08:29:36;;;;;;;3.87;3.07;;;21.10;54.10;;;;;;4991505;28;20195;-46
2022/05/27 08:32:03;;;;;;;4.40;2.83;;;21.00;54.50;;;;;;4990998;28;20206;-45
2022/05/27 08:40:14;;;;;;;3.47;2.80;;;21.20;54.40;;;;;;4992777;28;20449;-45
2022/05/27 08:43:12;;;;;;;2.87;2.67;;;21.10;54.70;;;;;;4990335;28;20472;-45
2022/05/27 08:45:52;;;;;;;3.03;2.40;;;21.10;54.50;;;;;;4988942;28;20492;-44
2022/05/27 08:48:19;;;;;;;2.53;2.27;;;21.20;54.10;;;;;;4990554;28;20437;-44
2022/05/27 08:50:52;;;;;;;7.63;2.70;;;21.40;54.10;;;;;;4986676;28;20464;-47
2022/05/27 08:53:40;;;;;;;3.27;2.83;;;21.40;53.80;;;;;;4988794;28;20485;-44
2022/05/27 09:01:46;;;;;;;4.80;2.80;;;21.20;54.20;;;;;;4989062;28;20588;-43
2022/05/27 09:04:17;;;;;;;8.23;2.70;;;21.40;54.30;;;;;;4986680;28;20446;-44
2022/05/27 09:06:51;;;;;;;4.00;2.73;;;21.40;54.10;;;;;;4985542;28;20446;-46
2022/05/27 09:09:26;;;;;;;2.80;2.50;;;21.50;53.60;;;;;;4990240;28;20452;-43
2022/05/27 09:12:03;;;;;;;3.80;3.00;;;21.50;53.60;;;;;;4986913;28;20940;-44
2022/05/27 09:14:31;;;;;;;4.20;2.53;;;21.70;53.70;;;;;;4987826;28;20454;-44
2022/05/27 09:17:04;;;;;;;3.40;3.10;;;21.80;53.50;;;;;;4988412;28;20971;-44
2022/05/27 09:19:41;;;;;;;4.27;2.73;;;21.80;53.10;;;;;;4988148;28;20442;-44
2022/05/27 09:22:17;;;;;;;3.63;2.80;;;21.80;53.20;;;;;;4977988;28;20494;-43
2022/05/27 09:24:48;;;;;;;3.83;2.50;;;21.60;53.00;;;;;;4990843;28;20608;-44
2022/05/27 09:27:57;;;;;;;2.63;2.40;;;21.50;52.80;;;;;;4989760;28;20531;-44
2022/05/27 09:30:23;;;;;;;3.60;2.53;;;21.60;53.10;;;;;;4961324;28;20456;-44
2022/05/27 09:33:02;;;;;;;2.53;2.33;;;21.60;52.60;;;;;;5001886;28;20421;-44
2022/05/27 09:35:45;;;;;;;4.27;2.60;;;21.80;52.80;;;;;;4979312;28;20473;-45
2022/05/27 09:38:34;;;;;;;3.47;2.87;;;21.90;52.00;;;;;;4979791;28;20938;-44
2022/05/27 09:41:14;;;;;;;3.80;2.93;;;22.10;51.60;;;;;;4974904;28;20528;-46
2022/05/27 09:43:45;;;;;;;3.60;2.40;;;21.90;50.70;;;;;;4990725;28;20472;-44
2022/05/27 09:46:23;;;;;;;4.07;2.50;;;21.60;50.80;;;;;;4989902;28;20536;-45
2022/05/27 09:48:49;;;;;;;6.47;2.37;;;21.60;51.70;;;;;;4989117;28;20507;-45
2022/05/27 09:51:16;;;;;;;1.90;1.80;;;21.80;51.10;;;;;;4992367;28;20447;-46
2022/05/27 09:53:48;;;;;;;3.00;2.13;;;21.60;50.60;;;;;;4988976;28;20274;-45
2022/05/27 09:56:16;;;;;;;2.63;2.10;;;21.70;50.50;;;;;;4992200;28;20452;-45
2022/05/27 09:58:46;;;;;;;3.80;2.43;;;21.60;49.50;;;;;;4988628;28;20441;-45
2022/05/27 10:01:38;;;;;;;2.60;2.00;;;21.90;50.00;;;;;;4988392;28;20493;-44
2022/05/27 10:04:06;;;;;;;1.93;1.73;;;22.00;49.60;;;;;;4988984;28;20461;-44
2022/05/27 10:06:34;;;;;;;2.37;2.17;;;22.20;49.60;;;;;;4997206;28;20599;-44
2022/05/27 10:09:05;;;;;;;3.13;2.03;;;22.40;49.10;;;;;;4986568;28;20442;-45
2022/05/27 10:11:32;;;;;;;1.73;1.63;;;22.70;48.70;;;;;;4987618;28;20445;-45
2022/05/27 10:14:18;;;;;;;2.63;2.40;;;22.70;48.20;;;;;;4991382;28;20809;-44
2022/05/27 10:17:10;;;;;;;5.87;2.10;;;23.00;47.00;;;;;;4989923;28;20508;-44
2022/05/27 10:19:38;;;;;;;1.80;1.70;;;23.30;46.60;;;;;;4991057;28;20441;-44
2022/05/27 10:22:07;;;;;;;2.93;2.00;;;23.20;45.80;;;;;;4989449;28;20493;-44
2022/05/27 10:24:36;;;;;;;2.60;2.00;;;23.40;46.00;;;;;;4990231;28;20965;-45
2022/05/27 10:27:04;;;;;;;2.07;1.97;;;23.40;46.10;;;;;;4984972;28;20806;-44
2022/05/27 10:29:31;;;;;;;2.10;1.87;;;23.60;45.40;;;;;;4986547;28;20547;-44
2022/05/27 10:32:01;;;;;;;2.23;1.70;;;23.80;44.50;;;;;;4985772;28;20446;-45
2022/05/27 10:34:46;;;;;;;2.23;2.03;;;24.20;44.70;;;;;;4989728;28;20450;-44
2022/05/27 10:37:48;;;;;;;2.10;1.90;;;24.20;43.60;;;;;;4986435;28;20569;-44
2022/05/27 10:40:25;;;;;;;2.37;1.80;;;24.30;43.70;;;;;;4951584;28;20549;-45
2022/05/27 10:43:02;;;;;;;2.37;2.27;;;24.60;44.40;;;;;;4986179;28;20494;-44
2022/05/27 10:45:49;;;;;;;2.60;1.93;;;25.00;44.30;;;;;;4986738;28;20441;-46
2022/05/27 10:48:37;;;;;;;2.50;2.30;;;25.40;43.90;;;;;;4987351;28;20454;-44
2022/05/27 10:51:24;;;;;;;3.93;2.47;;;25.50;42.50;;;;;;4987046;28;20587;-45
2022/05/27 10:54:27;;;;;;;2.33;2.13;;;25.40;42.00;;;;;;4986222;28;20512;-45
2022/05/27 11:03:59;;;;;;;3.23;2.30;;;25.90;42.00;;;;;;4982034;28;20516;-44
2022/05/27 11:06:50;;;;;;;2.03;1.90;;;25.70;41.80;;;;;;4967561;28;20649;-45
2022/05/27 11:09:26;;;;;;;2.10;1.90;;;25.60;41.70;;;;;;4990174;28;20496;-45
2022/05/27 11:12:21;;;;;;;2.10;1.80;;;25.60;41.80;;;;;;4981932;28;20471;-44
2022/05/27 11:15:12;;;;;;;2.20;2.00;;;25.40;41.60;;;;;;4988253;28;20445;-45
2022/05/27 11:17:50;;;;;;;2.20;1.73;;;25.40;41.30;;;;;;4986674;28;20560;-44
2022/05/27 11:20:42;;;;;;;3.40;1.70;;;25.20;41.70;;;;;;4983262;28;20442;-44
2022/05/27 11:23:37;;;;;;;2.03;1.83;;;25.30;41.70;;;;;;4988498;28;21161;-45
2022/05/27 11:26:38;;;;;;;3.77;1.73;;;25.00;41.70;;;;;;4988188;28;20453;-46
2022/05/27 11:29:40;;;;;;;2.33;2.17;;;24.60;41.60;;;;;;4989446;28;20941;-49
2022/05/27 11:32:27;;;;;;;1.80;1.53;;;24.40;42.40;;;;;;4988061;28;20441;-47
2022/05/27 11:35:30;;;;;;;1.80;1.70;;;24.50;42.30;;;;;;4980475;28;20456;-49
2022/05/27 11:38:08;;;;;;;2.57;2.07;;;24.60;42.60;;;;;;4985505;28;20811;-46
2022/05/27 11:41:00;;;;;;;2.13;1.93;;;24.70;42.70;;;;;;4987771;28;20452;-45
2022/05/27 11:44:06;;;;;;;2.80;2.20;;;24.80;42.90;;;;;;4987279;28;20516;-44
2022/05/27 11:46:41;;;;;;;2.10;2.00;;;24.60;43.90;;;;;;4975693;28;20489;-47
2022/05/27 11:49:06;;;;;;;4.00;2.00;;;24.50;43.10;;;;;;4987635;28;20548;-46
2022/05/27 11:51:45;;;;;;;2.33;1.53;;;24.60;43.60;;;;;;4985845;28;20516;-46
2022/05/27 11:54:17;;;;;;;1.90;1.80;;;24.80;43.20;;;;;;4984656;28;20605;-49
2022/05/27 11:56:57;;;;;;;2.70;2.10;;;24.80;43.30;;;;;;4986759;28;20527;-46
2022/05/27 11:59:32;;;;;;;5.03;1.93;;;25.00;42.90;;;;;;4982159;28;20461;-45
2022/05/27 12:02:15;;;;;;;2.03;1.90;;;24.70;43.00;;;;;;4985023;28;20492;-44
2022/05/27 12:05:00;;;;;;;4.53;2.27;;;24.90;42.70;;;;;;4985229;28;20446;-44
2022/05/27 12:08:00;;;;;;;4.20;2.03;;;24.70;42.60;;;;;;4983787;28;20516;-45
2022/05/27 12:10:44;;;;;;;2.77;2.13;;;24.60;42.90;;;;;;4972818;28;20517;-47
2022/05/27 12:13:25;;;;;;;2.60;1.57;;;24.50;42.90;;;;;;4987114;28;20450;-44
2022/05/27 12:16:12;;;;;;;1.80;1.70;;;24.50;42.90;;;;;;4985817;28;20456;-46
2022/05/27 12:18:49;;;;;;;2.83;1.80;;;24.40;42.60;;;;;;4987179;28;20449;-45
2022/05/27 12:21:18;;;;;;;2.13;1.93;;;24.30;43.20;;;;;;4986976;28;20488;-45
2022/05/27 12:23:56;;;;;;;5.83;1.87;;;24.30;43.70;;;;;;4986416;28;20450;-49
2022/05/27 12:26:34;;;;;;;2.00;1.90;;;24.40;43.20;;;;;;4982472;28;20473;-45
2022/05/27 12:29:04;;;;;;;1.80;1.70;;;24.50;42.80;;;;;;4988190;28;20930;-48
2022/05/27 12:31:31;;;;;;;3.30;1.63;;;24.70;42.60;;;;;;4981122;28;20449;-45
2022/05/27 12:33:57;;;;;;;2.33;2.10;;;24.70;42.40;;;;;;4986941;28;20547;-45
2022/05/27 12:36:26;;;;;;;2.20;1.57;;;24.60;42.50;;;;;;4984289;28;20489;-45
2022/05/27 12:38:54;;;;;;;2.80;1.77;;;24.90;42.60;;;;;;4983843;28;20572;-46
2022/05/27 12:41:39;;;;;;;2.10;1.90;;;24.90;42.80;;;;;;4983660;28;20993;-44
2022/05/27 12:44:28;;;;;;;4.13;2.97;;;24.80;42.60;;;;;;4991332;28;20445;-46
2022/05/27 12:46:58;;;;;;;1.40;1.30;;;24.50;43.20;;;;;;4990873;28;20536;-45
2022/05/27 12:49:41;;;;;;;3.63;2.03;;;24.20;43.90;;;;;;4986784;28;20452;-44
2022/05/27 12:52:28;;;;;;;2.57;1.90;;;24.20;44.90;;;;;;4989770;28;21242;-46
2022/05/27 12:54:55;;;;;;;1.60;1.50;;;24.60;44.80;;;;;;4985645;28;20491;-44
2022/05/27 13:03:36;;;;;;;3.20;1.50;;;25.20;43.90;;;;;;4988452;28;20468;-44
2022/05/27 13:06:04;;;;;;;2.27;2.07;;;25.20;43.10;;;;;;4990909;28;20453;-47
2022/05/27 13:08:35;;;;;;;2.30;2.20;;;25.20;43.00;;;;;;4989957;28;21044;-45
2022/05/27 13:11:01;;;;;;;3.77;2.00;;;25.20;43.30;;;;;;4988984;28;20445;-45
2022/05/27 13:13:30;;;;;;;1.63;1.53;;;25.00;42.40;;;;;;4986296;28;20449;-47
2022/05/27 13:16:21;;;;;;;2.60;1.70;;;25.10;43.50;;;;;;4984560;28;20246;-46
2022/05/27 13:19:04;;;;;;;2.07;1.80;;;25.10;43.50;;;;;;4987155;28;20945;-47
2022/05/27 13:21:44;;;;;;;2.17;1.60;;;25.20;43.60;;;;;;4985873;28;20489;-44
2022/05/27 13:24:13;;;;;;;2.23;2.10;;;25.20;43.60;;;;;;4983251;28;21286;-43
2022/05/27 13:26:45;;;;;;;4.87;2.27;;;25.10;43.50;;;;;;4986499;28;20458;-44
2022/05/27 13:29:34;;;;;;;4.70;2.00;;;25.10;43.60;;;;;;4987630;28;20445;-45
2022/05/27 13:32:15;;;;;;;2.10;1.90;;;25.30;44.00;;;;;;4978073;28;20449;-46
2022/05/27 13:35:02;;;;;;;1.83;1.73;;;25.30;43.30;;;;;;4980459;28;20536;-44
2022/05/27 13:37:39;;;;;;;2.33;2.13;;;25.20;43.80;;;;;;4986883;28;20945;-48
2022/05/27 13:40:09;;;;;;;2.47;2.27;;;25.20;43.90;;;;;;4985830;28;20458;-44
2022/05/27 13:42:46;;;;;;;1.87;1.77;;;25.10;43.90;;;;;;4983227;28;20912;-44
2022/05/27 13:45:32;;;;;;;5.03;1.63;;;24.80;44.20;;;;;;4989482;28;20442;-45
2022/05/27 13:48:09;;;;;;;1.90;1.80;;;24.90;44.50;;;;;;4984088;28;20481;-44
2022/05/27 13:50:46;;;;;;;2.03;1.90;;;24.90;44.60;;;;;;4988396;28;20444;-44
2022/05/27 13:53:16;;;;;;;2.10;1.70;;;24.60;44.00;;;;;;4985204;28;20481;-46
2022/05/27 13:55:42;;;;;;;3.63;1.80;;;24.80;44.20;;;;;;4993996;28;20470;-45